sensor_id;sensor_type;location;lat;lon;timestamp;P1;durP1;ratioP1;P2;durP2;ratioP2
70733;SDS011;58320;48.804;9.252;2023-04-03T00:00:39;5.05;;;2.95;;
70733;SDS011;58320;48.804;9.252;2023-04-03T00:03:05;4.97;;;3.08;;
70733;SDS011;58320;48.804;9.252;2023-04-03T00:05:31;5.63;;;3.37;;
70733;SDS011;58320;48.804;9.252;2023-04-03T00:07:57;5.60;;;3.40;;
70733;SDS011;58320;48.804;9.252;2023-04-03T00:10:22;7.68;;;3.47;;
70733;SDS011;58320;48.804;9.252;2023-04-03T00:12:48;5.07;;;2.93;;
70733;SDS011;58320;48.804;9.252;2023-04-03T00:15:14;6.85;;;3.30;;
70733;SDS011;58320;48.804;9.252;2023-04-03T00:17:40;8.25;;;3.47;;
70733;SDS011;58320;48.804;9.252;2023-04-03T00:20:06;5.83;;;3.10;;
70733;SDS011;58320;48.804;9.252;2023-04-03T00:22:33;5.70;;;2.92;;
70733;SDS011;58320;48.804;9.252;2023-04-03T00:24:58;5.65;;;3.08;;
70733;SDS011;58320;48.804;9.252;2023-04-03T00:27:24;6.17;;;3.00;;
70733;SDS011;58320;48.804;9.252;2023-04-03T00:29:50;5.60;;;2.80;;
70733;SDS011;58320;48.804;9.252;2023-04-03T00:32:16;6.07;;;3.17;;
70733;SDS011;58320;48.804;9.252;2023-04-03T00:34:42;7.93;;;3.40;;
70733;SDS011;58320;48.804;9.252;2023-04-03T00:37:08;5.43;;;2.90;;
70733;SDS011;58320;48.804;9.252;2023-04-03T00:39:34;5.60;;;3.47;;
70733;SDS011;58320;48.804;9.252;2023-04-03T00:42:00;5.00;;;2.90;;
70733;SDS011;58320;48.804;9.252;2023-04-03T00:47:01;5.57;;;3.10;;
70733;SDS011;58320;48.804;9.252;2023-04-03T00:49:29;5.88;;;3.10;;
70733;SDS011;58320;48.804;9.252;2023-04-03T00:51:55;6.15;;;3.17;;
70733;SDS011;58320;48.804;9.252;2023-04-03T00:54:22;4.30;;;2.73;;
70733;SDS011;58320;48.804;9.252;2023-04-03T00:56:48;7.00;;;3.40;;
70733;SDS011;58320;48.804;9.252;2023-04-03T00:59:18;6.22;;;3.17;;
70733;SDS011;58320;48.804;9.252;2023-04-03T01:01:51;5.18;;;3.10;;
70733;SDS011;58320;48.804;9.252;2023-04-03T01:04:27;4.80;;;2.77;;
70733;SDS011;58320;48.804;9.252;2023-04-03T01:07:03;5.80;;;3.00;;
70733;SDS011;58320;48.804;9.252;2023-04-03T01:09:38;5.30;;;3.08;;
70733;SDS011;58320;48.804;9.252;2023-04-03T01:14:48;6.53;;;3.55;;
70733;SDS011;58320;48.804;9.252;2023-04-03T01:25:42;5.15;;;2.88;;
70733;SDS011;58320;48.804;9.252;2023-04-03T01:28:24;6.40;;;3.20;;
70733;SDS011;58320;48.804;9.252;2023-04-03T01:33:50;5.53;;;3.13;;
70733;SDS011;58320;48.804;9.252;2023-04-03T01:36:18;5.97;;;3.40;;
70733;SDS011;58320;48.804;9.252;2023-04-03T01:38:56;5.70;;;3.13;;
70733;SDS011;58320;48.804;9.252;2023-04-03T01:41:24;7.68;;;3.40;;
70733;SDS011;58320;48.804;9.252;2023-04-03T01:43:50;5.07;;;2.93;;
70733;SDS011;58320;48.804;9.252;2023-04-03T01:46:17;5.03;;;3.20;;
70733;SDS011;58320;48.804;9.252;2023-04-03T01:48:44;5.53;;;3.60;;
70733;SDS011;58320;48.804;9.252;2023-04-03T01:51:10;5.70;;;3.20;;
70733;SDS011;58320;48.804;9.252;2023-04-03T01:53:36;6.03;;;3.38;;
70733;SDS011;58320;48.804;9.252;2023-04-03T01:56:02;5.80;;;3.27;;
70733;SDS011;58320;48.804;9.252;2023-04-03T01:58:29;7.25;;;3.58;;
70733;SDS011;58320;48.804;9.252;2023-04-03T02:00:54;6.80;;;3.03;;
70733;SDS011;58320;48.804;9.252;2023-04-03T02:03:20;5.25;;;3.20;;
70733;SDS011;58320;48.804;9.252;2023-04-03T02:05:47;5.50;;;3.17;;
70733;SDS011;58320;48.804;9.252;2023-04-03T02:08:13;5.70;;;3.10;;
70733;SDS011;58320;48.804;9.252;2023-04-03T02:10:39;5.97;;;3.55;;
70733;SDS011;58320;48.804;9.252;2023-04-03T02:13:05;5.07;;;2.90;;
70733;SDS011;58320;48.804;9.252;2023-04-03T02:15:30;5.60;;;3.47;;
70733;SDS011;58320;48.804;9.252;2023-04-03T02:17:56;5.75;;;3.38;;
70733;SDS011;58320;48.804;9.252;2023-04-03T02:20:22;5.80;;;3.30;;
70733;SDS011;58320;48.804;9.252;2023-04-03T02:22:48;5.93;;;3.33;;
70733;SDS011;58320;48.804;9.252;2023-04-03T02:25:14;6.72;;;3.40;;
70733;SDS011;58320;48.804;9.252;2023-04-03T02:27:40;6.03;;;3.58;;
70733;SDS011;58320;48.804;9.252;2023-04-03T02:30:06;5.90;;;2.60;;
70733;SDS011;58320;48.804;9.252;2023-04-03T02:32:34;5.93;;;3.30;;
70733;SDS011;58320;48.804;9.252;2023-04-03T02:35:00;6.07;;;3.15;;
70733;SDS011;58320;48.804;9.252;2023-04-03T02:37:25;5.73;;;3.27;;
70733;SDS011;58320;48.804;9.252;2023-04-03T02:39:51;5.82;;;3.33;;
70733;SDS011;58320;48.804;9.252;2023-04-03T02:42:17;5.43;;;3.10;;
70733;SDS011;58320;48.804;9.252;2023-04-03T02:44:43;6.82;;;3.30;;
70733;SDS011;58320;48.804;9.252;2023-04-03T02:47:09;4.90;;;3.10;;
70733;SDS011;58320;48.804;9.252;2023-04-03T02:49:35;6.13;;;3.00;;
70733;SDS011;58320;48.804;9.252;2023-04-03T02:52:00;5.20;;;3.40;;
70733;SDS011;58320;48.804;9.252;2023-04-03T02:54:26;6.20;;;3.20;;
70733;SDS011;58320;48.804;9.252;2023-04-03T02:56:55;5.07;;;3.08;;
70733;SDS011;58320;48.804;9.252;2023-04-03T02:59:22;5.13;;;3.03;;
70733;SDS011;58320;48.804;9.252;2023-04-03T03:01:48;6.03;;;3.20;;
70733;SDS011;58320;48.804;9.252;2023-04-03T03:04:13;5.43;;;2.83;;
70733;SDS011;58320;48.804;9.252;2023-04-03T03:06:39;5.60;;;3.00;;
70733;SDS011;58320;48.804;9.252;2023-04-03T03:09:06;6.57;;;2.80;;
70733;SDS011;58320;48.804;9.252;2023-04-03T03:11:31;6.47;;;3.28;;
70733;SDS011;58320;48.804;9.252;2023-04-03T03:13:57;5.60;;;3.00;;
70733;SDS011;58320;48.804;9.252;2023-04-03T03:16:23;7.20;;;3.37;;
70733;SDS011;58320;48.804;9.252;2023-04-03T03:18:49;5.07;;;3.03;;
70733;SDS011;58320;48.804;9.252;2023-04-03T03:21:14;4.97;;;2.93;;
70733;SDS011;58320;48.804;9.252;2023-04-03T03:23:40;5.47;;;3.35;;
70733;SDS011;58320;48.804;9.252;2023-04-03T03:28:39;5.50;;;3.10;;
70733;SDS011;58320;48.804;9.252;2023-04-03T03:31:05;4.60;;;2.90;;
70733;SDS011;58320;48.804;9.252;2023-04-03T03:33:33;7.00;;;3.05;;
70733;SDS011;58320;48.804;9.252;2023-04-03T03:35:59;4.53;;;2.90;;
70733;SDS011;58320;48.804;9.252;2023-04-03T03:38:25;6.32;;;3.03;;
70733;SDS011;58320;48.804;9.252;2023-04-03T03:40:51;4.40;;;2.55;;
70733;SDS011;58320;48.804;9.252;2023-04-03T03:43:17;4.85;;;2.97;;
70733;SDS011;58320;48.804;9.252;2023-04-03T03:45:45;6.43;;;3.10;;
70733;SDS011;58320;48.804;9.252;2023-04-03T03:48:15;5.27;;;2.97;;
70733;SDS011;58320;48.804;9.252;2023-04-03T03:50:41;6.30;;;3.40;;
70733;SDS011;58320;48.804;9.252;2023-04-03T03:53:06;5.57;;;3.30;;
70733;SDS011;58320;48.804;9.252;2023-04-03T03:55:32;4.50;;;2.63;;
70733;SDS011;58320;48.804;9.252;2023-04-03T03:57:58;4.30;;;2.78;;
70733;SDS011;58320;48.804;9.252;2023-04-03T04:00:26;4.87;;;2.90;;
70733;SDS011;58320;48.804;9.252;2023-04-03T04:02:52;6.43;;;2.63;;
70733;SDS011;58320;48.804;9.252;2023-04-03T04:05:18;5.03;;;3.08;;
70733;SDS011;58320;48.804;9.252;2023-04-03T04:07:44;4.28;;;2.80;;
70733;SDS011;58320;48.804;9.252;2023-04-03T04:10:10;5.17;;;3.10;;
70733;SDS011;58320;48.804;9.252;2023-04-03T04:12:36;4.88;;;2.85;;
70733;SDS011;58320;48.804;9.252;2023-04-03T04:15:02;6.68;;;3.15;;
70733;SDS011;58320;48.804;9.252;2023-04-03T04:17:28;6.33;;;3.07;;
70733;SDS011;58320;48.804;9.252;2023-04-03T04:19:54;7.18;;;2.80;;
70733;SDS011;58320;48.804;9.252;2023-04-03T04:22:20;5.27;;;3.03;;
70733;SDS011;58320;48.804;9.252;2023-04-03T04:24:45;5.45;;;3.08;;
70733;SDS011;58320;48.804;9.252;2023-04-03T04:27:11;6.73;;;3.00;;
70733;SDS011;58320;48.804;9.252;2023-04-03T04:29:37;4.70;;;2.80;;
70733;SDS011;58320;48.804;9.252;2023-04-03T04:32:03;4.60;;;2.50;;
70733;SDS011;58320;48.804;9.252;2023-04-03T04:34:29;5.33;;;2.80;;
70733;SDS011;58320;48.804;9.252;2023-04-03T04:36:55;5.18;;;2.80;;
70733;SDS011;58320;48.804;9.252;2023-04-03T04:39:21;7.55;;;3.17;;
70733;SDS011;58320;48.804;9.252;2023-04-03T04:41:47;4.88;;;2.63;;
70733;SDS011;58320;48.804;9.252;2023-04-03T04:44:13;6.10;;;3.67;;
70733;SDS011;58320;48.804;9.252;2023-04-03T04:46:39;5.50;;;2.88;;
70733;SDS011;58320;48.804;9.252;2023-04-03T04:49:05;5.38;;;2.60;;
70733;SDS011;58320;48.804;9.252;2023-04-03T04:51:31;7.10;;;3.00;;
70733;SDS011;58320;48.804;9.252;2023-04-03T04:53:56;5.65;;;3.00;;
70733;SDS011;58320;48.804;9.252;2023-04-03T04:56:22;4.97;;;2.90;;
70733;SDS011;58320;48.804;9.252;2023-04-03T04:58:48;4.38;;;2.80;;
70733;SDS011;58320;48.804;9.252;2023-04-03T05:01:14;3.83;;;2.35;;
70733;SDS011;58320;48.804;9.252;2023-04-03T05:03:40;5.13;;;3.10;;
70733;SDS011;58320;48.804;9.252;2023-04-03T05:06:05;4.30;;;2.58;;
70733;SDS011;58320;48.804;9.252;2023-04-03T05:08:32;4.20;;;2.53;;
70733;SDS011;58320;48.804;9.252;2023-04-03T05:10:57;5.23;;;2.37;;
70733;SDS011;58320;48.804;9.252;2023-04-03T05:13:23;5.00;;;2.97;;
70733;SDS011;58320;48.804;9.252;2023-04-03T05:15:49;6.20;;;3.07;;
70733;SDS011;58320;48.804;9.252;2023-04-03T05:18:15;5.22;;;2.72;;
70733;SDS011;58320;48.804;9.252;2023-04-03T05:20:40;8.50;;;3.10;;
70733;SDS011;58320;48.804;9.252;2023-04-03T05:23:08;5.27;;;3.27;;
70733;SDS011;58320;48.804;9.252;2023-04-03T05:25:37;5.75;;;3.10;;
70733;SDS011;58320;48.804;9.252;2023-04-03T05:28:03;4.47;;;2.85;;
70733;SDS011;58320;48.804;9.252;2023-04-03T05:30:29;4.72;;;2.50;;
70733;SDS011;58320;48.804;9.252;2023-04-03T05:32:55;6.50;;;2.93;;
70733;SDS011;58320;48.804;9.252;2023-04-03T05:35:21;3.85;;;2.60;;
70733;SDS011;58320;48.804;9.252;2023-04-03T05:37:47;5.68;;;2.78;;
70733;SDS011;58320;48.804;9.252;2023-04-03T05:40:13;5.10;;;2.67;;
70733;SDS011;58320;48.804;9.252;2023-04-03T05:42:39;6.43;;;3.20;;
70733;SDS011;58320;48.804;9.252;2023-04-03T05:45:06;6.18;;;3.00;;
70733;SDS011;58320;48.804;9.252;2023-04-03T05:47:32;5.15;;;3.20;;
70733;SDS011;58320;48.804;9.252;2023-04-03T05:49:57;5.27;;;3.40;;
70733;SDS011;58320;48.804;9.252;2023-04-03T05:52:27;5.80;;;3.13;;
70733;SDS011;58320;48.804;9.252;2023-04-03T05:55:03;5.03;;;3.20;;
70733;SDS011;58320;48.804;9.252;2023-04-03T05:57:30;5.63;;;3.00;;
70733;SDS011;58320;48.804;9.252;2023-04-03T05:59:56;4.67;;;2.83;;
70733;SDS011;58320;48.804;9.252;2023-04-03T06:02:22;4.53;;;2.85;;
70733;SDS011;58320;48.804;9.252;2023-04-03T06:04:49;5.80;;;3.17;;
70733;SDS011;58320;48.804;9.252;2023-04-03T06:07:16;5.43;;;2.90;;
70733;SDS011;58320;48.804;9.252;2023-04-03T06:09:46;4.82;;;2.90;;
70733;SDS011;58320;48.804;9.252;2023-04-03T06:12:13;6.13;;;3.38;;
70733;SDS011;58320;48.804;9.252;2023-04-03T06:14:38;5.28;;;2.70;;
70733;SDS011;58320;48.804;9.252;2023-04-03T06:17:04;5.63;;;2.53;;
70733;SDS011;58320;48.804;9.252;2023-04-03T06:19:31;5.20;;;3.33;;
70733;SDS011;58320;48.804;9.252;2023-04-03T06:21:57;5.00;;;2.85;;
70733;SDS011;58320;48.804;9.252;2023-04-03T06:24:23;4.93;;;2.87;;
70733;SDS011;58320;48.804;9.252;2023-04-03T06:26:50;5.40;;;2.97;;
70733;SDS011;58320;48.804;9.252;2023-04-03T06:29:17;5.85;;;3.03;;
70733;SDS011;58320;48.804;9.252;2023-04-03T06:31:46;5.22;;;2.42;;
70733;SDS011;58320;48.804;9.252;2023-04-03T06:34:13;7.03;;;3.30;;
70733;SDS011;58320;48.804;9.252;2023-04-03T06:36:40;4.83;;;3.10;;
70733;SDS011;58320;48.804;9.252;2023-04-03T06:39:08;4.95;;;2.92;;
70733;SDS011;58320;48.804;9.252;2023-04-03T06:41:38;6.05;;;2.88;;
70733;SDS011;58320;48.804;9.252;2023-04-03T06:44:04;6.87;;;2.90;;
70733;SDS011;58320;48.804;9.252;2023-04-03T06:46:30;7.43;;;2.70;;
70733;SDS011;58320;48.804;9.252;2023-04-03T06:48:56;5.88;;;2.95;;
70733;SDS011;58320;48.804;9.252;2023-04-03T06:51:25;5.37;;;2.70;;
70733;SDS011;58320;48.804;9.252;2023-04-03T06:53:54;6.55;;;3.05;;
70733;SDS011;58320;48.804;9.252;2023-04-03T06:56:22;5.10;;;2.90;;
70733;SDS011;58320;48.804;9.252;2023-04-03T06:58:50;7.07;;;2.78;;
70733;SDS011;58320;48.804;9.252;2023-04-03T07:01:17;4.30;;;2.40;;
70733;SDS011;58320;48.804;9.252;2023-04-03T07:03:44;5.75;;;3.33;;
70733;SDS011;58320;48.804;9.252;2023-04-03T07:06:12;6.13;;;3.40;;
70733;SDS011;58320;48.804;9.252;2023-04-03T07:08:40;6.18;;;3.00;;
70733;SDS011;58320;48.804;9.252;2023-04-03T07:11:07;4.50;;;2.80;;
70733;SDS011;58320;48.804;9.252;2023-04-03T07:13:35;5.07;;;2.70;;
70733;SDS011;58320;48.804;9.252;2023-04-03T07:16:01;6.45;;;2.85;;
70733;SDS011;58320;48.804;9.252;2023-04-03T07:18:28;6.05;;;3.05;;
70733;SDS011;58320;48.804;9.252;2023-04-03T07:20:54;5.20;;;2.90;;
70733;SDS011;58320;48.804;9.252;2023-04-03T07:23:21;7.50;;;3.10;;
70733;SDS011;58320;48.804;9.252;2023-04-03T07:25:50;7.07;;;2.83;;
70733;SDS011;58320;48.804;9.252;2023-04-03T07:28:17;5.45;;;2.80;;
70733;SDS011;58320;48.804;9.252;2023-04-03T07:30:48;4.75;;;2.85;;
70733;SDS011;58320;48.804;9.252;2023-04-03T07:33:17;6.07;;;2.78;;
70733;SDS011;58320;48.804;9.252;2023-04-03T07:35:46;4.43;;;2.95;;
70733;SDS011;58320;48.804;9.252;2023-04-03T07:38:12;4.30;;;2.50;;
70733;SDS011;58320;48.804;9.252;2023-04-03T07:40:38;5.30;;;2.80;;
70733;SDS011;58320;48.804;9.252;2023-04-03T07:43:05;5.38;;;2.47;;
70733;SDS011;58320;48.804;9.252;2023-04-03T07:45:31;4.65;;;2.78;;
70733;SDS011;58320;48.804;9.252;2023-04-03T07:47:59;6.20;;;2.83;;
70733;SDS011;58320;48.804;9.252;2023-04-03T07:50:25;6.10;;;2.97;;
70733;SDS011;58320;48.804;9.252;2023-04-03T07:52:52;5.65;;;3.08;;
70733;SDS011;58320;48.804;9.252;2023-04-03T07:55:19;6.20;;;3.13;;
70733;SDS011;58320;48.804;9.252;2023-04-03T07:57:45;5.22;;;3.15;;
70733;SDS011;58320;48.804;9.252;2023-04-03T08:00:11;7.20;;;3.10;;
70733;SDS011;58320;48.804;9.252;2023-04-03T08:02:38;4.93;;;2.83;;
70733;SDS011;58320;48.804;9.252;2023-04-03T08:05:04;5.18;;;2.92;;
70733;SDS011;58320;48.804;9.252;2023-04-03T08:07:30;5.68;;;3.10;;
70733;SDS011;58320;48.804;9.252;2023-04-03T08:09:56;5.53;;;3.20;;
70733;SDS011;58320;48.804;9.252;2023-04-03T08:12:22;5.65;;;3.30;;
70733;SDS011;58320;48.804;9.252;2023-04-03T08:14:48;5.35;;;2.72;;
70733;SDS011;58320;48.804;9.252;2023-04-03T08:17:13;7.80;;;3.00;;
70733;SDS011;58320;48.804;9.252;2023-04-03T08:19:40;5.57;;;2.80;;
70733;SDS011;58320;48.804;9.252;2023-04-03T08:22:06;4.65;;;2.90;;
70733;SDS011;58320;48.804;9.252;2023-04-03T08:24:32;6.03;;;2.80;;
70733;SDS011;58320;48.804;9.252;2023-04-03T08:26:59;10.93;;;3.33;;
70733;SDS011;58320;48.804;9.252;2023-04-03T08:29:25;6.50;;;3.33;;
70733;SDS011;58320;48.804;9.252;2023-04-03T08:31:52;4.93;;;3.05;;
70733;SDS011;58320;48.804;9.252;2023-04-03T08:34:19;6.13;;;3.28;;
70733;SDS011;58320;48.804;9.252;2023-04-03T08:36:45;6.95;;;3.63;;
70733;SDS011;58320;48.804;9.252;2023-04-03T08:39:11;5.30;;;2.97;;
70733;SDS011;58320;48.804;9.252;2023-04-03T08:49:57;4.80;;;3.08;;
70733;SDS011;58320;48.804;9.252;2023-04-03T08:52:36;7.30;;;3.10;;
70733;SDS011;58320;48.804;9.252;2023-04-03T08:55:29;4.93;;;2.95;;
70733;SDS011;58320;48.804;9.252;2023-04-03T08:58:30;5.82;;;2.95;;
70733;SDS011;58320;48.804;9.252;2023-04-03T09:03:23;5.23;;;3.10;;
70733;SDS011;58320;48.804;9.252;2023-04-03T09:06:07;6.45;;;2.88;;
70733;SDS011;58320;48.804;9.252;2023-04-03T09:18:20;6.90;;;2.85;;
70733;SDS011;58320;48.804;9.252;2023-04-03T09:23:01;5.38;;;2.80;;
70733;SDS011;58320;48.804;9.252;2023-04-03T09:26:04;5.35;;;2.90;;
70733;SDS011;58320;48.804;9.252;2023-04-03T09:28:37;4.43;;;2.23;;
70733;SDS011;58320;48.804;9.252;2023-04-03T09:33:57;5.03;;;2.90;;
70733;SDS011;58320;48.804;9.252;2023-04-03T09:39:05;6.43;;;2.97;;
70733;SDS011;58320;48.804;9.252;2023-04-03T09:52:37;4.95;;;2.53;;
70733;SDS011;58320;48.804;9.252;2023-04-03T09:55:13;4.40;;;2.10;;
70733;SDS011;58320;48.804;9.252;2023-04-03T09:57:42;9.82;;;3.05;;
70733;SDS011;58320;48.804;9.252;2023-04-03T10:00:20;4.88;;;2.78;;
70733;SDS011;58320;48.804;9.252;2023-04-03T10:02:51;5.45;;;2.72;;
70733;SDS011;58320;48.804;9.252;2023-04-03T10:05:25;4.43;;;2.60;;
70733;SDS011;58320;48.804;9.252;2023-04-03T10:10:40;6.05;;;2.88;;
70733;SDS011;58320;48.804;9.252;2023-04-03T10:13:15;5.32;;;2.40;;
70733;SDS011;58320;48.804;9.252;2023-04-03T10:15:47;5.68;;;2.75;;
70733;SDS011;58320;48.804;9.252;2023-04-03T10:21:10;5.37;;;2.53;;
70733;SDS011;58320;48.804;9.252;2023-04-03T10:24:00;6.40;;;2.60;;
70733;SDS011;58320;48.804;9.252;2023-04-03T10:35:16;6.00;;;2.73;;
70733;SDS011;58320;48.804;9.252;2023-04-03T10:40:42;6.00;;;2.55;;
70733;SDS011;58320;48.804;9.252;2023-04-03T10:46:28;4.20;;;2.30;;
70733;SDS011;58320;48.804;9.252;2023-04-03T10:57:43;5.38;;;2.78;;
70733;SDS011;58320;48.804;9.252;2023-04-03T11:00:21;4.15;;;2.50;;
70733;SDS011;58320;48.804;9.252;2023-04-03T11:02:57;3.50;;;2.03;;
70733;SDS011;58320;48.804;9.252;2023-04-03T11:08:10;4.78;;;2.00;;
70733;SDS011;58320;48.804;9.252;2023-04-03T11:11:01;5.78;;;2.35;;
70733;SDS011;58320;48.804;9.252;2023-04-03T11:13:41;4.60;;;2.10;;
70733;SDS011;58320;48.804;9.252;2023-04-03T11:16:21;4.40;;;2.13;;
70733;SDS011;58320;48.804;9.252;2023-04-03T11:18:56;3.92;;;1.88;;
70733;SDS011;58320;48.804;9.252;2023-04-03T11:21:34;3.60;;;1.67;;
70733;SDS011;58320;48.804;9.252;2023-04-03T11:24:11;4.55;;;2.55;;
70733;SDS011;58320;48.804;9.252;2023-04-03T11:26:53;5.10;;;2.47;;
70733;SDS011;58320;48.804;9.252;2023-04-03T11:29:23;3.90;;;2.00;;
70733;SDS011;58320;48.804;9.252;2023-04-03T11:35:30;5.10;;;2.15;;
70733;SDS011;58320;48.804;9.252;2023-04-03T11:37:57;6.15;;;2.38;;
70733;SDS011;58320;48.804;9.252;2023-04-03T11:40:33;6.30;;;2.47;;
70733;SDS011;58320;48.804;9.252;2023-04-03T11:51:00;4.72;;;2.45;;
70733;SDS011;58320;48.804;9.252;2023-04-03T11:53:48;4.38;;;2.00;;
70733;SDS011;58320;48.804;9.252;2023-04-03T11:59:14;5.07;;;2.35;;
70733;SDS011;58320;48.804;9.252;2023-04-03T12:04:13;4.97;;;2.10;;
70733;SDS011;58320;48.804;9.252;2023-04-03T12:06:48;3.97;;;2.10;;
70733;SDS011;58320;48.804;9.252;2023-04-03T12:14:55;4.00;;;2.10;;
70733;SDS011;58320;48.804;9.252;2023-04-03T12:17:41;4.45;;;2.20;;
70733;SDS011;58320;48.804;9.252;2023-04-03T12:24:23;5.03;;;2.28;;
70733;SDS011;58320;48.804;9.252;2023-04-03T12:37:48;5.40;;;2.00;;
70733;SDS011;58320;48.804;9.252;2023-04-03T12:41:04;5.35;;;2.53;;
70733;SDS011;58320;48.804;9.252;2023-04-03T12:46:24;5.18;;;2.67;;
70733;SDS011;58320;48.804;9.252;2023-04-03T12:48:55;4.40;;;2.20;;
70733;SDS011;58320;48.804;9.252;2023-04-03T12:51:34;5.00;;;2.13;;
70733;SDS011;58320;48.804;9.252;2023-04-03T12:54:13;4.72;;;2.35;;
70733;SDS011;58320;48.804;9.252;2023-04-03T12:56:49;4.88;;;2.00;;
70733;SDS011;58320;48.804;9.252;2023-04-03T13:01:52;4.13;;;1.80;;
70733;SDS011;58320;48.804;9.252;2023-04-03T13:04:29;3.95;;;1.77;;
70733;SDS011;58320;48.804;9.252;2023-04-03T13:06:57;4.25;;;2.38;;
70733;SDS011;58320;48.804;9.252;2023-04-03T13:09:24;3.95;;;1.98;;
70733;SDS011;58320;48.804;9.252;2023-04-03T13:12:00;3.38;;;1.70;;
70733;SDS011;58320;48.804;9.252;2023-04-03T13:14:29;5.23;;;2.00;;
70733;SDS011;58320;48.804;9.252;2023-04-03T13:16:56;5.10;;;1.98;;
70733;SDS011;58320;48.804;9.252;2023-04-03T13:19:26;5.85;;;2.47;;
70733;SDS011;58320;48.804;9.252;2023-04-03T13:21:58;4.13;;;2.00;;
70733;SDS011;58320;48.804;9.252;2023-04-03T13:24:30;4.43;;;2.20;;
70733;SDS011;58320;48.804;9.252;2023-04-03T13:27:00;4.50;;;2.20;;
70733;SDS011;58320;48.804;9.252;2023-04-03T13:29:30;4.13;;;2.10;;
70733;SDS011;58320;48.804;9.252;2023-04-03T13:32:00;4.35;;;2.50;;
70733;SDS011;58320;48.804;9.252;2023-04-03T13:34:29;4.55;;;2.22;;
70733;SDS011;58320;48.804;9.252;2023-04-03T13:37:07;4.75;;;2.28;;
70733;SDS011;58320;48.804;9.252;2023-04-03T13:42:33;5.20;;;2.30;;
70733;SDS011;58320;48.804;9.252;2023-04-03T13:47:55;5.90;;;2.03;;
70733;SDS011;58320;48.804;9.252;2023-04-03T13:50:55;4.95;;;2.00;;
70733;SDS011;58320;48.804;9.252;2023-04-03T13:53:56;4.53;;;2.20;;
70733;SDS011;58320;48.804;9.252;2023-04-03T13:56:34;5.57;;;2.70;;
70733;SDS011;58320;48.804;9.252;2023-04-03T13:59:05;4.55;;;2.70;;
70733;SDS011;58320;48.804;9.252;2023-04-03T14:07:09;5.67;;;2.20;;
70733;SDS011;58320;48.804;9.252;2023-04-03T14:09:36;4.63;;;2.10;;
70733;SDS011;58320;48.804;9.252;2023-04-03T14:12:07;5.40;;;2.53;;
70733;SDS011;58320;48.804;9.252;2023-04-03T14:14:51;4.50;;;2.30;;
70733;SDS011;58320;48.804;9.252;2023-04-03T14:17:19;6.05;;;2.45;;
70733;SDS011;58320;48.804;9.252;2023-04-03T14:19:49;4.53;;;2.10;;
70733;SDS011;58320;48.804;9.252;2023-04-03T14:22:20;4.93;;;2.20;;
70733;SDS011;58320;48.804;9.252;2023-04-03T14:24:48;5.43;;;2.45;;
70733;SDS011;58320;48.804;9.252;2023-04-03T14:27:20;3.97;;;2.05;;
70733;SDS011;58320;48.804;9.252;2023-04-03T14:29:49;3.80;;;2.28;;
70733;SDS011;58320;48.804;9.252;2023-04-03T14:32:18;4.07;;;2.03;;
70733;SDS011;58320;48.804;9.252;2023-04-03T14:34:50;4.40;;;2.10;;
70733;SDS011;58320;48.804;9.252;2023-04-03T14:37:17;5.18;;;2.60;;
70733;SDS011;58320;48.804;9.252;2023-04-03T14:39:54;5.68;;;2.42;;
70733;SDS011;58320;48.804;9.252;2023-04-03T14:42:26;4.55;;;2.53;;
70733;SDS011;58320;48.804;9.252;2023-04-03T14:44:56;4.10;;;2.17;;
70733;SDS011;58320;48.804;9.252;2023-04-03T14:47:24;5.22;;;2.55;;
70733;SDS011;58320;48.804;9.252;2023-04-03T14:49:53;4.75;;;2.58;;
70733;SDS011;58320;48.804;9.252;2023-04-03T14:52:23;5.80;;;2.45;;
70733;SDS011;58320;48.804;9.252;2023-04-03T14:54:55;5.45;;;2.15;;
70733;SDS011;58320;48.804;9.252;2023-04-03T14:57:23;7.63;;;2.20;;
70733;SDS011;58320;48.804;9.252;2023-04-03T14:59:51;4.63;;;2.28;;
70733;SDS011;58320;48.804;9.252;2023-04-03T15:04:57;3.70;;;2.13;;
70733;SDS011;58320;48.804;9.252;2023-04-03T15:07:25;3.83;;;2.30;;
70733;SDS011;58320;48.804;9.252;2023-04-03T15:09:54;4.20;;;2.23;;
70733;SDS011;58320;48.804;9.252;2023-04-03T15:12:21;4.45;;;2.00;;
70733;SDS011;58320;48.804;9.252;2023-04-03T15:14:49;3.88;;;1.92;;
70733;SDS011;58320;48.804;9.252;2023-04-03T15:17:17;4.38;;;2.10;;
70733;SDS011;58320;48.804;9.252;2023-04-03T15:19:46;4.35;;;2.20;;
70733;SDS011;58320;48.804;9.252;2023-04-03T15:22:14;4.13;;;2.17;;
70733;SDS011;58320;48.804;9.252;2023-04-03T15:24:43;4.53;;;2.40;;
70733;SDS011;58320;48.804;9.252;2023-04-03T15:27:09;5.47;;;2.20;;
70733;SDS011;58320;48.804;9.252;2023-04-03T15:29:37;4.75;;;2.40;;
70733;SDS011;58320;48.804;9.252;2023-04-03T15:32:05;5.68;;;2.47;;
70733;SDS011;58320;48.804;9.252;2023-04-03T15:34:31;3.83;;;2.00;;
70733;SDS011;58320;48.804;9.252;2023-04-03T15:36:57;5.50;;;1.92;;
70733;SDS011;58320;48.804;9.252;2023-04-03T15:39:24;4.85;;;2.40;;
70733;SDS011;58320;48.804;9.252;2023-04-03T15:41:50;3.90;;;2.05;;
70733;SDS011;58320;48.804;9.252;2023-04-03T15:44:19;5.17;;;2.53;;
70733;SDS011;58320;48.804;9.252;2023-04-03T15:46:46;6.20;;;2.40;;
70733;SDS011;58320;48.804;9.252;2023-04-03T15:49:19;4.78;;;2.17;;
70733;SDS011;58320;48.804;9.252;2023-04-03T15:51:46;3.72;;;2.08;;
70733;SDS011;58320;48.804;9.252;2023-04-03T15:54:12;4.10;;;2.10;;
70733;SDS011;58320;48.804;9.252;2023-04-03T15:56:38;5.67;;;2.07;;
70733;SDS011;58320;48.804;9.252;2023-04-03T15:59:04;5.15;;;2.08;;
70733;SDS011;58320;48.804;9.252;2023-04-03T16:01:30;3.80;;;1.70;;
70733;SDS011;58320;48.804;9.252;2023-04-03T16:03:56;5.55;;;2.10;;
70733;SDS011;58320;48.804;9.252;2023-04-03T16:06:22;4.87;;;2.10;;
70733;SDS011;58320;48.804;9.252;2023-04-03T16:08:50;5.25;;;2.28;;
70733;SDS011;58320;48.804;9.252;2023-04-03T16:11:16;3.83;;;1.75;;
70733;SDS011;58320;48.804;9.252;2023-04-03T16:13:42;4.07;;;2.00;;
70733;SDS011;58320;48.804;9.252;2023-04-03T16:16:08;5.03;;;2.00;;
70733;SDS011;58320;48.804;9.252;2023-04-03T16:18:34;5.07;;;1.92;;
70733;SDS011;58320;48.804;9.252;2023-04-03T16:21:00;4.35;;;2.20;;
70733;SDS011;58320;48.804;9.252;2023-04-03T16:23:26;4.90;;;2.13;;
70733;SDS011;58320;48.804;9.252;2023-04-03T16:25:52;4.73;;;1.90;;
70733;SDS011;58320;48.804;9.252;2023-04-03T16:28:19;4.53;;;2.30;;
70733;SDS011;58320;48.804;9.252;2023-04-03T16:30:45;4.75;;;2.10;;
70733;SDS011;58320;48.804;9.252;2023-04-03T16:33:13;5.60;;;2.20;;
70733;SDS011;58320;48.804;9.252;2023-04-03T16:35:39;5.20;;;2.03;;
70733;SDS011;58320;48.804;9.252;2023-04-03T16:38:07;5.25;;;2.42;;
70733;SDS011;58320;48.804;9.252;2023-04-03T16:40:33;3.75;;;1.83;;
70733;SDS011;58320;48.804;9.252;2023-04-03T16:42:59;5.10;;;2.67;;
70733;SDS011;58320;48.804;9.252;2023-04-03T16:45:26;4.77;;;2.27;;
70733;SDS011;58320;48.804;9.252;2023-04-03T16:47:52;5.40;;;2.38;;
70733;SDS011;58320;48.804;9.252;2023-04-03T16:50:18;5.85;;;2.60;;
70733;SDS011;58320;48.804;9.252;2023-04-03T16:52:45;6.13;;;2.90;;
70733;SDS011;58320;48.804;9.252;2023-04-03T16:55:11;5.07;;;2.67;;
70733;SDS011;58320;48.804;9.252;2023-04-03T16:57:37;6.10;;;3.05;;
70733;SDS011;58320;48.804;9.252;2023-04-03T17:00:03;5.07;;;2.50;;
70733;SDS011;58320;48.804;9.252;2023-04-03T17:02:30;4.63;;;2.10;;
70733;SDS011;58320;48.804;9.252;2023-04-03T17:04:56;5.28;;;2.45;;
70733;SDS011;58320;48.804;9.252;2023-04-03T17:07:23;5.53;;;2.45;;
70733;SDS011;58320;48.804;9.252;2023-04-03T17:09:50;6.85;;;2.92;;
70733;SDS011;58320;48.804;9.252;2023-04-03T17:12:16;6.50;;;2.60;;
70733;SDS011;58320;48.804;9.252;2023-04-03T17:14:42;6.43;;;2.65;;
70733;SDS011;58320;48.804;9.252;2023-04-03T17:17:08;7.35;;;2.80;;
70733;SDS011;58320;48.804;9.252;2023-04-03T17:19:35;4.55;;;2.55;;
70733;SDS011;58320;48.804;9.252;2023-04-03T17:22:02;5.53;;;2.80;;
70733;SDS011;58320;48.804;9.252;2023-04-03T17:24:28;6.07;;;2.70;;